sensor_id;sensor_type;location;lat;lon;timestamp;temperature;humidity
32612;DHT22;19030;49.478;8.986;2023-05-10T00:00:57;14.30;99.90
32612;DHT22;19030;49.478;8.986;2023-05-10T00:02:57;14.20;99.90
32612;DHT22;19030;49.478;8.986;2023-05-10T00:04:58;14.20;99.90
32612;DHT22;19030;49.478;8.986;2023-05-10T00:06:58;14.20;99.90
32612;DHT22;19030;49.478;8.986;2023-05-10T00:08:59;14.20;99.90
32612;DHT22;19030;49.478;8.986;2023-05-10T00:10:59;14.20;99.90
32612;DHT22;19030;49.478;8.986;2023-05-10T00:13:00;14.20;99.90
32612;DHT22;19030;49.478;8.986;2023-05-10T00:15:01;14.20;99.90
32612;DHT22;19030;49.478;8.986;2023-05-10T00:17:01;14.30;99.90
32612;DHT22;19030;49.478;8.986;2023-05-10T00:19:02;14.20;99.90
32612;DHT22;19030;49.478;8.986;2023-05-10T00:21:03;14.20;99.90
32612;DHT22;19030;49.478;8.986;2023-05-10T00:23:04;14.20;99.90
32612;DHT22;19030;49.478;8.986;2023-05-10T00:25:05;14.20;99.90
32612;DHT22;19030;49.478;8.986;2023-05-10T00:27:05;14.20;99.90
32612;DHT22;19030;49.478;8.986;2023-05-10T00:29:06;14.20;99.90
32612;DHT22;19030;49.478;8.986;2023-05-10T00:31:06;14.20;99.90
32612;DHT22;19030;49.478;8.986;2023-05-10T00:33:07;14.20;99.90
32612;DHT22;19030;49.478;8.986;2023-05-10T00:35:08;14.20;99.90
32612;DHT22;19030;49.478;8.986;2023-05-10T00:37:08;14.10;99.90
32612;DHT22;19030;49.478;8.986;2023-05-10T00:39:09;14.10;99.90
32612;DHT22;19030;49.478;8.986;2023-05-10T00:41:09;14.10;99.90
32612;DHT22;19030;49.478;8.986;2023-05-10T00:43:12;14.00;99.90
32612;DHT22;19030;49.478;8.986;2023-05-10T00:45:13;14.00;99.90
32612;DHT22;19030;49.478;8.986;2023-05-10T00:47:13;14.00;99.90
32612;DHT22;19030;49.478;8.986;2023-05-10T00:49:16;13.90;99.90
32612;DHT22;19030;49.478;8.986;2023-05-10T00:51:16;13.90;99.90
32612;DHT22;19030;49.478;8.986;2023-05-10T00:53:18;13.80;99.90
32612;DHT22;19030;49.478;8.986;2023-05-10T00:55:19;13.80;99.90
32612;DHT22;19030;49.478;8.986;2023-05-10T00:57:21;13.80;99.90
32612;DHT22;19030;49.478;8.986;2023-05-10T00:59:21;13.80;99.90
32612;DHT22;19030;49.478;8.986;2023-05-10T01:01:22;13.80;99.90
32612;DHT22;19030;49.478;8.986;2023-05-10T01:03:23;13.80;99.90
32612;DHT22;19030;49.478;8.986;2023-05-10T01:05:23;13.80;99.90
32612;DHT22;19030;49.478;8.986;2023-05-10T01:07:24;13.70;99.90
32612;DHT22;19030;49.478;8.986;2023-05-10T01:09:25;13.70;99.90
32612;DHT22;19030;49.478;8.986;2023-05-10T01:11:26;13.70;99.90
32612;DHT22;19030;49.478;8.986;2023-05-10T01:13:33;13.70;99.90
32612;DHT22;19030;49.478;8.986;2023-05-10T01:15:35;13.70;99.90
32612;DHT22;19030;49.478;8.986;2023-05-10T01:17:38;13.70;99.90
32612;DHT22;19030;49.478;8.986;2023-05-10T01:19:40;13.70;99.90
32612;DHT22;19030;49.478;8.986;2023-05-10T01:22:02;13.70;99.90
32612;DHT22;19030;49.478;8.986;2023-05-10T01:27:02;13.70;99.90
32612;DHT22;19030;49.478;8.986;2023-05-10T01:29:18;13.60;99.90
32612;DHT22;19030;49.478;8.986;2023-05-10T01:34:01;13.60;99.90
32612;DHT22;19030;49.478;8.986;2023-05-10T01:36:26;13.60;99.90
32612;DHT22;19030;49.478;8.986;2023-05-10T01:38:29;13.60;99.90
32612;DHT22;19030;49.478;8.986;2023-05-10T01:40:37;13.60;99.90
32612;DHT22;19030;49.478;8.986;2023-05-10T01:42:46;13.60;99.90
32612;DHT22;19030;49.478;8.986;2023-05-10T01:45:14;13.60;99.90
32612;DHT22;19030;49.478;8.986;2023-05-10T01:47:41;13.50;99.90
32612;DHT22;19030;49.478;8.986;2023-05-10T01:49:49;13.50;99.90
32612;DHT22;19030;49.478;8.986;2023-05-10T01:51:53;13.50;99.90
32612;DHT22;19030;49.478;8.986;2023-05-10T01:54:00;13.50;99.90
32612;DHT22;19030;49.478;8.986;2023-05-10T01:56:02;13.40;99.90
32612;DHT22;19030;49.478;8.986;2023-05-10T01:58:13;13.40;99.90
32612;DHT22;19030;49.478;8.986;2023-05-10T02:00:14;13.40;99.90
32612;DHT22;19030;49.478;8.986;2023-05-10T02:02:17;13.40;99.90
32612;DHT22;19030;49.478;8.986;2023-05-10T02:04:19;13.40;99.90
32612;DHT22;19030;49.478;8.986;2023-05-10T02:06:22;13.40;99.90
32612;DHT22;19030;49.478;8.986;2023-05-10T02:08:24;13.50;99.90
32612;DHT22;19030;49.478;8.986;2023-05-10T02:10:26;13.40;99.90
32612;DHT22;19030;49.478;8.986;2023-05-10T02:12:28;13.40;99.90
32612;DHT22;19030;49.478;8.986;2023-05-10T02:14:32;13.50;99.90
32612;DHT22;19030;49.478;8.986;2023-05-10T02:16:35;13.40;99.90
32612;DHT22;19030;49.478;8.986;2023-05-10T02:18:36;13.40;99.90
32612;DHT22;19030;49.478;8.986;2023-05-10T02:20:37;13.50;99.90
32612;DHT22;19030;49.478;8.986;2023-05-10T02:22:39;13.50;99.90
32612;DHT22;19030;49.478;8.986;2023-05-10T02:24:41;13.50;99.90
32612;DHT22;19030;49.478;8.986;2023-05-10T02:26:42;13.40;99.90
32612;DHT22;19030;49.478;8.986;2023-05-10T02:28:44;13.40;99.90
32612;DHT22;19030;49.478;8.986;2023-05-10T02:30:47;13.40;99.90
32612;DHT22;19030;49.478;8.986;2023-05-10T02:32:49;13.40;99.90
32612;DHT22;19030;49.478;8.986;2023-05-10T02:34:52;13.40;99.90
32612;DHT22;19030;49.478;8.986;2023-05-10T02:36:53;13.40;99.90
32612;DHT22;19030;49.478;8.986;2023-05-10T02:38:55;13.40;99.90
32612;DHT22;19030;49.478;8.986;2023-05-10T02:40:57;13.40;99.90
32612;DHT22;19030;49.478;8.986;2023-05-10T02:42:59;13.40;99.90
32612;DHT22;19030;49.478;8.986;2023-05-10T02:45:05;13.40;99.90
32612;DHT22;19030;49.478;8.986;2023-05-10T02:47:08;13.40;99.90
32612;DHT22;19030;49.478;8.986;2023-05-10T02:49:08;13.40;99.90
32612;DHT22;19030;49.478;8.986;2023-05-10T02:51:11;13.40;99.90
32612;DHT22;19030;49.478;8.986;2023-05-10T02:53:16;13.40;99.90
32612;DHT22;19030;49.478;8.986;2023-05-10T02:55:21;13.40;99.90
32612;DHT22;19030;49.478;8.986;2023-05-10T02:57:27;13.30;99.90
32612;DHT22;19030;49.478;8.986;2023-05-10T02:59:29;13.30;99.90
32612;DHT22;19030;49.478;8.986;2023-05-10T03:01:29;13.30;99.90
32612;DHT22;19030;49.478;8.986;2023-05-10T03:03:30;13.30;99.90
32612;DHT22;19030;49.478;8.986;2023-05-10T03:05:30;13.30;99.90
32612;DHT22;19030;49.478;8.986;2023-05-10T03:07:35;13.30;99.90
32612;DHT22;19030;49.478;8.986;2023-05-10T03:09:36;13.30;99.90
32612;DHT22;19030;49.478;8.986;2023-05-10T03:11:43;13.30;99.90
32612;DHT22;19030;49.478;8.986;2023-05-10T03:13:57;13.20;99.90
32612;DHT22;19030;49.478;8.986;2023-05-10T03:16:12;13.20;99.90
32612;DHT22;19030;49.478;8.986;2023-05-10T03:18:29;13.20;99.90
32612;DHT22;19030;49.478;8.986;2023-05-10T03:20:57;13.20;99.90
32612;DHT22;19030;49.478;8.986;2023-05-10T03:23:21;13.10;99.90
32612;DHT22;19030;49.478;8.986;2023-05-10T03:25:22;13.20;99.90
32612;DHT22;19030;49.478;8.986;2023-05-10T03:27:27;13.20;99.90
32612;DHT22;19030;49.478;8.986;2023-05-10T03:29:30;13.10;99.90
32612;DHT22;19030;49.478;8.986;2023-05-10T03:31:32;13.10;99.90
32612;DHT22;19030;49.478;8.986;2023-05-10T03:33:33;13.10;99.90
32612;DHT22;19030;49.478;8.986;2023-05-10T03:35:34;13.10;99.90
32612;DHT22;19030;49.478;8.986;2023-05-10T03:37:35;13.00;99.90
32612;DHT22;19030;49.478;8.986;2023-05-10T03:39:36;13.10;99.90
32612;DHT22;19030;49.478;8.986;2023-05-10T03:41:39;13.00;99.90
32612;DHT22;19030;49.478;8.986;2023-05-10T03:43:39;13.00;99.90
32612;DHT22;19030;49.478;8.986;2023-05-10T03:45:40;13.00;99.90
32612;DHT22;19030;49.478;8.986;2023-05-10T03:47:40;13.00;99.90
32612;DHT22;19030;49.478;8.986;2023-05-10T03:49:41;13.00;99.90
32612;DHT22;19030;49.478;8.986;2023-05-10T03:51:42;13.00;99.90
32612;DHT22;19030;49.478;8.986;2023-05-10T03:53:42;13.00;99.90
32612;DHT22;19030;49.478;8.986;2023-05-10T03:55:43;13.00;99.90
32612;DHT22;19030;49.478;8.986;2023-05-10T03:57:43;13.00;99.90
32612;DHT22;19030;49.478;8.986;2023-05-10T03:59:44;13.00;99.90
32612;DHT22;19030;49.478;8.986;2023-05-10T04:01:45;13.00;99.90
32612;DHT22;19030;49.478;8.986;2023-05-10T04:03:46;13.00;99.90
32612;DHT22;19030;49.478;8.986;2023-05-10T04:05:46;13.00;99.90
32612;DHT22;19030;49.478;8.986;2023-05-10T04:07:47;13.00;99.90
32612;DHT22;19030;49.478;8.986;2023-05-10T04:09:49;13.00;99.90
32612;DHT22;19030;49.478;8.986;2023-05-10T04:11:50;13.00;99.90
32612;DHT22;19030;49.478;8.986;2023-05-10T04:13:50;13.00;99.90
32612;DHT22;19030;49.478;8.986;2023-05-10T04:15:51;13.00;99.90
32612;DHT22;19030;49.478;8.986;2023-05-10T04:17:52;13.10;99.90
32612;DHT22;19030;49.478;8.986;2023-05-10T04:19:52;13.00;99.90
32612;DHT22;19030;49.478;8.986;2023-05-10T04:21:54;13.00;99.90
32612;DHT22;19030;49.478;8.986;2023-05-10T04:23:55;13.00;99.90
32612;DHT22;19030;49.478;8.986;2023-05-10T04:26:00;13.00;99.90
32612;DHT22;19030;49.478;8.986;2023-05-10T04:28:01;13.00;99.90
32612;DHT22;19030;49.478;8.986;2023-05-10T04:30:01;13.00;99.90
32612;DHT22;19030;49.478;8.986;2023-05-10T04:32:02;13.10;99.90
32612;DHT22;19030;49.478;8.986;2023-05-10T04:34:03;13.00;99.90
32612;DHT22;19030;49.478;8.986;2023-05-10T04:36:04;13.00;99.90
32612;DHT22;19030;49.478;8.986;2023-05-10T04:38:05;13.00;99.90
32612;DHT22;19030;49.478;8.986;2023-05-10T04:40:06;13.10;99.90
32612;DHT22;19030;49.478;8.986;2023-05-10T04:42:07;13.10;99.90
32612;DHT22;19030;49.478;8.986;2023-05-10T04:44:07;13.10;99.90
32612;DHT22;19030;49.478;8.986;2023-05-10T04:46:08;13.20;99.90
32612;DHT22;19030;49.478;8.986;2023-05-10T04:48:09;13.20;99.90
32612;DHT22;19030;49.478;8.986;2023-05-10T04:50:09;13.20;99.90
32612;DHT22;19030;49.478;8.986;2023-05-10T04:52:10;13.30;99.90
32612;DHT22;19030;49.478;8.986;2023-05-10T04:54:11;13.30;99.90
32612;DHT22;19030;49.478;8.986;2023-05-10T04:56:12;13.30;99.90
32612;DHT22;19030;49.478;8.986;2023-05-10T04:58:12;13.30;99.90
32612;DHT22;19030;49.478;8.986;2023-05-10T05:00:13;13.30;99.90
32612;DHT22;19030;49.478;8.986;2023-05-10T05:02:14;13.30;99.90
32612;DHT22;19030;49.478;8.986;2023-05-10T05:04:15;13.30;99.90
32612;DHT22;19030;49.478;8.986;2023-05-10T05:06:16;13.40;99.90
32612;DHT22;19030;49.478;8.986;2023-05-10T05:08:16;13.40;99.90
32612;DHT22;19030;49.478;8.986;2023-05-10T05:10:17;13.40;99.90
32612;DHT22;19030;49.478;8.986;2023-05-10T05:12:17;13.50;99.90
32612;DHT22;19030;49.478;8.986;2023-05-10T05:14:18;13.50;99.90
32612;DHT22;19030;49.478;8.986;2023-05-10T05:16:21;13.60;99.90
32612;DHT22;19030;49.478;8.986;2023-05-10T05:18:21;13.70;99.90
32612;DHT22;19030;49.478;8.986;2023-05-10T05:20:22;13.70;99.90
32612;DHT22;19030;49.478;8.986;2023-05-10T05:22:22;13.80;99.90
32612;DHT22;19030;49.478;8.986;2023-05-10T05:24:27;13.80;99.90
32612;DHT22;19030;49.478;8.986;2023-05-10T05:26:28;13.80;99.90
32612;DHT22;19030;49.478;8.986;2023-05-10T05:28:28;13.90;99.90
32612;DHT22;19030;49.478;8.986;2023-05-10T05:30:33;13.90;99.90
32612;DHT22;19030;49.478;8.986;2023-05-10T05:32:33;14.00;99.90
32612;DHT22;19030;49.478;8.986;2023-05-10T05:34:34;14.10;99.90
32612;DHT22;19030;49.478;8.986;2023-05-10T05:36:36;14.10;99.90
32612;DHT22;19030;49.478;8.986;2023-05-10T05:38:38;14.20;99.90
32612;DHT22;19030;49.478;8.986;2023-05-10T05:40:39;14.20;99.90
32612;DHT22;19030;49.478;8.986;2023-05-10T05:42:39;14.20;99.90
32612;DHT22;19030;49.478;8.986;2023-05-10T05:44:40;14.20;99.90
32612;DHT22;19030;49.478;8.986;2023-05-10T05:46:40;14.20;99.90
32612;DHT22;19030;49.478;8.986;2023-05-10T05:48:41;14.30;99.90
32612;DHT22;19030;49.478;8.986;2023-05-10T05:50:41;14.30;99.90
32612;DHT22;19030;49.478;8.986;2023-05-10T05:52:42;14.40;99.90
32612;DHT22;19030;49.478;8.986;2023-05-10T05:54:42;14.30;99.90
32612;DHT22;19030;49.478;8.986;2023-05-10T05:56:43;14.40;99.90
32612;DHT22;19030;49.478;8.986;2023-05-10T05:58:44;14.40;99.90
32612;DHT22;19030;49.478;8.986;2023-05-10T06:00:45;14.40;99.90
32612;DHT22;19030;49.478;8.986;2023-05-10T06:02:45;14.70;99.90
32612;DHT22;19030;49.478;8.986;2023-05-10T06:04:46;14.80;99.90
32612;DHT22;19030;49.478;8.986;2023-05-10T06:06:46;15.00;99.90
32612;DHT22;19030;49.478;8.986;2023-05-10T06:08:47;15.10;99.90
32612;DHT22;19030;49.478;8.986;2023-05-10T06:10:48;15.30;99.90
32612;DHT22;19030;49.478;8.986;2023-05-10T06:12:48;15.30;99.90
32612;DHT22;19030;49.478;8.986;2023-05-10T06:14:49;15.30;99.90
32612;DHT22;19030;49.478;8.986;2023-05-10T06:16:49;15.30;99.90
32612;DHT22;19030;49.478;8.986;2023-05-10T06:18:50;15.20;99.90
32612;DHT22;19030;49.478;8.986;2023-05-10T06:20:51;15.20;99.90
32612;DHT22;19030;49.478;8.986;2023-05-10T06:22:52;15.00;99.90
32612;DHT22;19030;49.478;8.986;2023-05-10T06:24:52;14.90;99.90
32612;DHT22;19030;49.478;8.986;2023-05-10T06:26:53;14.90;99.90
32612;DHT22;19030;49.478;8.986;2023-05-10T06:28:53;14.80;99.90
32612;DHT22;19030;49.478;8.986;2023-05-10T06:30:54;14.90;99.90
32612;DHT22;19030;49.478;8.986;2023-05-10T06:32:55;14.90;99.90
32612;DHT22;19030;49.478;8.986;2023-05-10T06:34:55;14.90;99.90
32612;DHT22;19030;49.478;8.986;2023-05-10T06:36:56;14.90;99.90
32612;DHT22;19030;49.478;8.986;2023-05-10T06:38:56;14.80;99.90
32612;DHT22;19030;49.478;8.986;2023-05-10T06:40:57;14.90;99.90
32612;DHT22;19030;49.478;8.986;2023-05-10T06:42:57;14.90;99.90
32612;DHT22;19030;49.478;8.986;2023-05-10T06:44:58;15.00;99.90
32612;DHT22;19030;49.478;8.986;2023-05-10T06:46:58;15.10;99.90
32612;DHT22;19030;49.478;8.986;2023-05-10T06:48:59;15.10;99.90
32612;DHT22;19030;49.478;8.986;2023-05-10T06:51:00;15.20;99.90
32612;DHT22;19030;49.478;8.986;2023-05-10T06:53:01;15.20;99.90
32612;DHT22;19030;49.478;8.986;2023-05-10T06:55:05;15.20;99.90
32612;DHT22;19030;49.478;8.986;2023-05-10T06:57:05;15.20;99.90
32612;DHT22;19030;49.478;8.986;2023-05-10T06:59:06;15.20;99.90
32612;DHT22;19030;49.478;8.986;2023-05-10T07:01:07;15.10;99.90
32612;DHT22;19030;49.478;8.986;2023-05-10T07:03:08;15.00;99.90
32612;DHT22;19030;49.478;8.986;2023-05-10T07:05:09;14.90;99.90
32612;DHT22;19030;49.478;8.986;2023-05-10T07:07:09;14.80;99.90
32612;DHT22;19030;49.478;8.986;2023-05-10T07:09:10;14.70;99.90
32612;DHT22;19030;49.478;8.986;2023-05-10T07:11:10;14.50;99.90
32612;DHT22;19030;49.478;8.986;2023-05-10T07:13:11;14.40;99.90
32612;DHT22;19030;49.478;8.986;2023-05-10T07:15:11;14.50;99.90
32612;DHT22;19030;49.478;8.986;2023-05-10T07:17:12;14.40;99.90
32612;DHT22;19030;49.478;8.986;2023-05-10T07:19:13;14.50;99.90
32612;DHT22;19030;49.478;8.986;2023-05-10T07:21:13;14.70;99.90
32612;DHT22;19030;49.478;8.986;2023-05-10T07:23:14;14.90;99.90
32612;DHT22;19030;49.478;8.986;2023-05-10T07:25:14;15.10;99.90
32612;DHT22;19030;49.478;8.986;2023-05-10T07:27:15;15.40;99.90
32612;DHT22;19030;49.478;8.986;2023-05-10T07:29:15;15.70;99.90
32612;DHT22;19030;49.478;8.986;2023-05-10T07:31:16;15.90;99.90
32612;DHT22;19030;49.478;8.986;2023-05-10T07:33:17;16.00;99.90
32612;DHT22;19030;49.478;8.986;2023-05-10T07:35:17;16.30;99.90
32612;DHT22;19030;49.478;8.986;2023-05-10T07:37:18;16.50;99.90
32612;DHT22;19030;49.478;8.986;2023-05-10T07:39:18;16.80;99.90
32612;DHT22;19030;49.478;8.986;2023-05-10T07:41:20;17.20;99.90
32612;DHT22;19030;49.478;8.986;2023-05-10T07:43:21;17.60;99.90
32612;DHT22;19030;49.478;8.986;2023-05-10T07:45:22;17.90;99.90
32612;DHT22;19030;49.478;8.986;2023-05-10T07:47:23;18.00;99.90
32612;DHT22;19030;49.478;8.986;2023-05-10T07:49:24;17.80;99.90
32612;DHT22;19030;49.478;8.986;2023-05-10T07:51:24;17.70;99.90
32612;DHT22;19030;49.478;8.986;2023-05-10T07:53:26;17.70;99.90
32612;DHT22;19030;49.478;8.986;2023-05-10T07:55:27;17.70;99.90
32612;DHT22;19030;49.478;8.986;2023-05-10T07:57:28;17.80;99.90
32612;DHT22;19030;49.478;8.986;2023-05-10T07:59:28;17.80;99.90
32612;DHT22;19030;49.478;8.986;2023-05-10T08:01:33;17.90;99.90
32612;DHT22;19030;49.478;8.986;2023-05-10T08:03:34;18.30;99.90
32612;DHT22;19030;49.478;8.986;2023-05-10T08:05:35;18.70;99.90
32612;DHT22;19030;49.478;8.986;2023-05-10T08:07:35;18.90;99.90
32612;DHT22;19030;49.478;8.986;2023-05-10T08:09:36;18.90;99.90
32612;DHT22;19030;49.478;8.986;2023-05-10T08:11:36;18.80;99.90
32612;DHT22;19030;49.478;8.986;2023-05-10T08:13:37;18.80;99.90
32612;DHT22;19030;49.478;8.986;2023-05-10T08:15:37;19.10;99.90
32612;DHT22;19030;49.478;8.986;2023-05-10T08:17:38;19.20;99.90
32612;DHT22;19030;49.478;8.986;2023-05-10T08:19:39;19.00;99.90
32612;DHT22;19030;49.478;8.986;2023-05-10T08:21:40;18.90;99.90
32612;DHT22;19030;49.478;8.986;2023-05-10T08:23:42;18.80;99.90
32612;DHT22;19030;49.478;8.986;2023-05-10T08:25:44;18.50;99.90
32612;DHT22;19030;49.478;8.986;2023-05-10T08:27:44;18.30;99.90
32612;DHT22;19030;49.478;8.986;2023-05-10T08:29:45;18.20;99.90
32612;DHT22;19030;49.478;8.986;2023-05-10T08:31:45;18.10;99.90
32612;DHT22;19030;49.478;8.986;2023-05-10T08:33:46;18.00;99.90
32612;DHT22;19030;49.478;8.986;2023-05-10T08:35:47;18.00;99.90
32612;DHT22;19030;49.478;8.986;2023-05-10T08:37:47;18.00;99.90
32612;DHT22;19030;49.478;8.986;2023-05-10T08:39:48;17.80;99.90
32612;DHT22;19030;49.478;8.986;2023-05-10T08:41:51;17.80;99.90
32612;DHT22;19030;49.478;8.986;2023-05-10T08:43:53;18.00;99.90
32612;DHT22;19030;49.478;8.986;2023-05-10T08:45:54;18.20;99.90
32612;DHT22;19030;49.478;8.986;2023-05-10T08:47:56;18.20;99.90
32612;DHT22;19030;49.478;8.986;2023-05-10T08:49:57;18.10;99.90
32612;DHT22;19030;49.478;8.986;2023-05-10T08:52:02;17.70;99.90
32612;DHT22;19030;49.478;8.986;2023-05-10T08:54:04;17.30;99.90
32612;DHT22;19030;49.478;8.986;2023-05-10T08:56:05;17.20;99.90
32612;DHT22;19030;49.478;8.986;2023-05-10T08:58:06;17.20;99.90
32612;DHT22;19030;49.478;8.986;2023-05-10T09:00:07;17.20;99.90
32612;DHT22;19030;49.478;8.986;2023-05-10T09:02:10;17.10;99.90
32612;DHT22;19030;49.478;8.986;2023-05-10T09:04:12;17.30;99.90
32612;DHT22;19030;49.478;8.986;2023-05-10T09:06:13;17.50;99.90
32612;DHT22;19030;49.478;8.986;2023-05-10T09:08:14;17.60;99.90
32612;DHT22;19030;49.478;8.986;2023-05-10T09:10:16;17.60;99.90
32612;DHT22;19030;49.478;8.986;2023-05-10T09:12:17;17.60;99.90
32612;DHT22;19030;49.478;8.986;2023-05-10T09:14:18;17.60;99.90
32612;DHT22;19030;49.478;8.986;2023-05-10T09:16:20;17.70;99.90
32612;DHT22;19030;49.478;8.986;2023-05-10T09:18:20;17.90;99.90
32612;DHT22;19030;49.478;8.986;2023-05-10T09:20:21;18.00;99.90
32612;DHT22;19030;49.478;8.986;2023-05-10T09:22:21;17.90;99.90
32612;DHT22;19030;49.478;8.986;2023-05-10T09:24:25;17.80;99.90
32612;DHT22;19030;49.478;8.986;2023-05-10T09:26:27;17.50;99.90
32612;DHT22;19030;49.478;8.986;2023-05-10T09:28:31;17.50;99.90
32612;DHT22;19030;49.478;8.986;2023-05-10T09:30:32;17.50;99.90
32612;DHT22;19030;49.478;8.986;2023-05-10T09:32:51;17.60;99.90
32612;DHT22;19030;49.478;8.986;2023-05-10T09:34:52;17.60;99.90
32612;DHT22;19030;49.478;8.986;2023-05-10T09:36:55;17.50;99.90
32612;DHT22;19030;49.478;8.986;2023-05-10T09:38:57;17.70;99.90
32612;DHT22;19030;49.478;8.986;2023-05-10T09:40:57;17.90;99.90
32612;DHT22;19030;49.478;8.986;2023-05-10T09:43:04;18.60;99.90
32612;DHT22;19030;49.478;8.986;2023-05-10T09:45:06;19.80;99.90
32612;DHT22;19030;49.478;8.986;2023-05-10T09:47:07;20.80;99.90
32612;DHT22;19030;49.478;8.986;2023-05-10T09:49:08;21.00;99.90
32612;DHT22;19030;49.478;8.986;2023-05-10T09:51:08;20.90;99.90
32612;DHT22;19030;49.478;8.986;2023-05-10T09:53:09;20.80;99.90
32612;DHT22;19030;49.478;8.986;2023-05-10T09:55:09;21.10;99.90
32612;DHT22;19030;49.478;8.986;2023-05-10T09:57:21;21.60;99.90
32612;DHT22;19030;49.478;8.986;2023-05-10T09:59:25;21.80;99.90
32612;DHT22;19030;49.478;8.986;2023-05-10T10:01:27;21.40;99.90
32612;DHT22;19030;49.478;8.986;2023-05-10T10:03:28;20.80;99.90
32612;DHT22;19030;49.478;8.986;2023-05-10T10:05:34;20.00;99.90
32612;DHT22;19030;49.478;8.986;2023-05-10T10:07:35;19.30;99.90
32612;DHT22;19030;49.478;8.986;2023-05-10T10:09:36;18.70;99.90
32612;DHT22;19030;49.478;8.986;2023-05-10T10:11:37;18.30;99.90
32612;DHT22;19030;49.478;8.986;2023-05-10T10:13:38;17.80;99.90
32612;DHT22;19030;49.478;8.986;2023-05-10T10:15:39;17.40;99.90
32612;DHT22;19030;49.478;8.986;2023-05-10T10:17:40;17.10;99.90
32612;DHT22;19030;49.478;8.986;2023-05-10T10:19:41;17.00;99.90
32612;DHT22;19030;49.478;8.986;2023-05-10T10:21:42;16.90;99.90
32612;DHT22;19030;49.478;8.986;2023-05-10T10:23:42;16.80;99.90
32612;DHT22;19030;49.478;8.986;2023-05-10T10:25:44;16.80;99.90
32612;DHT22;19030;49.478;8.986;2023-05-10T10:30:01;17.10;99.90
32612;DHT22;19030;49.478;8.986;2023-05-10T10:32:12;17.50;99.90
32612;DHT22;19030;49.478;8.986;2023-05-10T10:34:25;17.80;99.90
32612;DHT22;19030;49.478;8.986;2023-05-10T10:36:27;18.20;99.90
32612;DHT22;19030;49.478;8.986;2023-05-10T10:40:47;18.60;99.90
32612;DHT22;19030;49.478;8.986;2023-05-10T10:42:48;18.80;99.90
32612;DHT22;19030;49.478;8.986;2023-05-10T10:45:11;18.90;99.90
32612;DHT22;19030;49.478;8.986;2023-05-10T10:49:14;19.20;99.90
32612;DHT22;19030;49.478;8.986;2023-05-10T10:51:15;19.20;99.90
32612;DHT22;19030;49.478;8.986;2023-05-10T10:53:16;19.00;99.90
32612;DHT22;19030;49.478;8.986;2023-05-10T10:55:18;18.80;99.90
32612;DHT22;19030;49.478;8.986;2023-05-10T10:57:20;18.60;99.90
32612;DHT22;19030;49.478;8.986;2023-05-10T10:59:27;18.30;99.90
32612;DHT22;19030;49.478;8.986;2023-05-10T11:01:32;18.20;99.90
32612;DHT22;19030;49.478;8.986;2023-05-10T11:03:33;18.10;99.90
32612;DHT22;19030;49.478;8.986;2023-05-10T11:05:40;18.10;99.90
32612;DHT22;19030;49.478;8.986;2023-05-10T11:07:59;17.90;99.90
32612;DHT22;19030;49.478;8.986;2023-05-10T11:10:04;18.00;99.90
32612;DHT22;19030;49.478;8.986;2023-05-10T11:12:08;18.10;99.90
32612;DHT22;19030;49.478;8.986;2023-05-10T11:14:09;18.10;99.90
32612;DHT22;19030;49.478;8.986;2023-05-10T11:16:18;18.10;99.90
32612;DHT22;19030;49.478;8.986;2023-05-10T11:18:20;17.80;99.90
32612;DHT22;19030;49.478;8.986;2023-05-10T11:20:23;17.40;99.90
32612;DHT22;19030;49.478;8.986;2023-05-10T11:22:29;17.00;99.90
32612;DHT22;19030;49.478;8.986;2023-05-10T11:24:57;16.70;99.90
32612;DHT22;19030;49.478;8.986;2023-05-10T11:26:59;16.30;99.90
32612;DHT22;19030;49.478;8.986;2023-05-10T11:29:00;16.10;99.90
32612;DHT22;19030;49.478;8.986;2023-05-10T11:31:02;15.90;99.90
32612;DHT22;19030;49.478;8.986;2023-05-10T11:33:03;15.70;99.90
32612;DHT22;19030;49.478;8.986;2023-05-10T11:35:07;15.60;99.90
32612;DHT22;19030;49.478;8.986;2023-05-10T11:37:08;15.70;99.90
32612;DHT22;19030;49.478;8.986;2023-05-10T11:39:09;15.90;99.90
32612;DHT22;19030;49.478;8.986;2023-05-10T11:41:11;16.30;99.90
32612;DHT22;19030;49.478;8.986;2023-05-10T11:43:12;16.40;99.90
32612;DHT22;19030;49.478;8.986;2023-05-10T11:45:13;16.70;99.90
32612;DHT22;19030;49.478;8.986;2023-05-10T11:47:13;16.90;99.90
32612;DHT22;19030;49.478;8.986;2023-05-10T11:49:14;17.10;99.90
32612;DHT22;19030;49.478;8.986;2023-05-10T11:51:14;17.30;99.90
32612;DHT22;19030;49.478;8.986;2023-05-10T11:53:15;17.40;99.90
32612;DHT22;19030;49.478;8.986;2023-05-10T11:55:16;17.70;99.90
32612;DHT22;19030;49.478;8.986;2023-05-10T11:57:18;17.90;99.90
32612;DHT22;19030;49.478;8.986;2023-05-10T11:59:19;18.00;99.90
32612;DHT22;19030;49.478;8.986;2023-05-10T12:01:21;18.30;99.90
32612;DHT22;19030;49.478;8.986;2023-05-10T12:03:22;18.50;99.90
32612;DHT22;19030;49.478;8.986;2023-05-10T12:05:23;18.70;99.90
32612;DHT22;19030;49.478;8.986;2023-05-10T12:07:26;18.90;99.90
32612;DHT22;19030;49.478;8.986;2023-05-10T12:09:26;19.10;99.90
32612;DHT22;19030;49.478;8.986;2023-05-10T12:11:28;19.30;99.90
32612;DHT22;19030;49.478;8.986;2023-05-10T12:13:29;19.50;99.90
32612;DHT22;19030;49.478;8.986;2023-05-10T12:15:29;19.70;99.90
32612;DHT22;19030;49.478;8.986;2023-05-10T12:17:30;19.90;99.90
32612;DHT22;19030;49.478;8.986;2023-05-10T12:19:37;20.00;99.90
32612;DHT22;19030;49.478;8.986;2023-05-10T12:21:38;19.80;99.90
32612;DHT22;19030;49.478;8.986;2023-05-10T12:23:39;19.70;99.90
32612;DHT22;19030;49.478;8.986;2023-05-10T12:25:40;19.60;99.90
32612;DHT22;19030;49.478;8.986;2023-05-10T12:27:41;19.50;99.90
32612;DHT22;19030;49.478;8.986;2023-05-10T12:29:42;19.30;99.90
32612;DHT22;19030;49.478;8.986;2023-05-10T12:31:55;19.20;99.90
32612;DHT22;19030;49.478;8.986;2023-05-10T12:33:56;19.10;99.90
32612;DHT22;19030;49.478;8.986;2023-05-10T12:35:59;19.20;99.90
32612;DHT22;19030;49.478;8.986;2023-05-10T12:37:59;19.40;99.90
32612;DHT22;19030;49.478;8.986;2023-05-10T12:40:00;19.80;99.90
32612;DHT22;19030;49.478;8.986;2023-05-10T12:42:00;20.30;99.90
32612;DHT22;19030;49.478;8.986;2023-05-10T12:44:01;20.70;99.90
32612;DHT22;19030;49.478;8.986;2023-05-10T12:46:16;20.80;99.90
32612;DHT22;19030;49.478;8.986;2023-05-10T12:48:17;21.10;99.90
32612;DHT22;19030;49.478;8.986;2023-05-10T12:50:18;21.00;99.90
32612;DHT22;19030;49.478;8.986;2023-05-10T12:52:18;20.70;99.90
32612;DHT22;19030;49.478;8.986;2023-05-10T12:54:19;20.20;99.90
32612;DHT22;19030;49.478;8.986;2023-05-10T12:56:19;19.80;99.90
32612;DHT22;19030;49.478;8.986;2023-05-10T12:58:20;19.50;99.90
32612;DHT22;19030;49.478;8.986;2023-05-10T13:00:21;19.20;99.90
32612;DHT22;19030;49.478;8.986;2023-05-10T13:02:21;19.00;99.90
32612;DHT22;19030;49.478;8.986;2023-05-10T13:04:23;18.90;99.90